You are not logged in, Click here to log in
ICAO: RJTT Country: 日本東京都大田區
Latitude: 35.5494 Longitude: 139.78
Total Arrivals: 106 Total Departures: 112
Latest Arrival: IT216 (RCTP-RJTT)阿華. 海馬 Latest Departure: TG683 (RJTT-VTBS)Mori. Yang
Scenery: http://forums.x-plane.org/index.php?/files/file/37241-rjtt-tokyo-haneda-airport/
METAR : RJTT 231800Z 06004KT 9999 FEW005 SCT035 BKN150 24/24 Q1006 NOSIG RMK 1ST005 3SC035 6AC150 A2971

東京国際空港(羽田)HND